Terminal Aerodrome Forecast
Issued by NWS Jackson, MS

Home | Current Version | Previous Version | Text Only | Print | Product List | Glossary On
Versions: 1 2 3 4 5 6 7 8 9 10 11 12 13 14 15 16 17 18 19 20
000
FTUS44 KJAN 270520
TAFMEI
TAF
KMEI 270520Z 2706/2806 28008KT P6SM -SHRA BKN015
     FM270800 35010KT P6SM OVC007
     FM271300 34008KT P6SM OVC015
     FM271900 32009G15KT P6SM OVC100
     FM272000 32011G18KT P6SM OVC050
     FM280200 34008KT P6SM BKN250=

USA.gov is the U.S. government's official web portal to all federal, state and local government web resources and services.